| time (UTC) | temp C | wind direction | speed KPH | gust KPH | rain 1hr cm | rain 24hr cm | rain mn cm | humidity % | barometer mb |
| 20260502151803 | 16 | 64 | 1.6 | 9.7 | 0.00 | 1.24 | 0.00 | 80 | 1022.2 |
| 20260502150904 | 16 | 45 | 1.6 | 14.5 | 0.00 | 1.30 | 0.00 | 81 | 1022.2 |
| 20260502130211 | 11 | 211 | 0.0 | 3.2 | 0.00 | 1.93 | 0.00 | 98 | 1020.7 |
| 20260502123603 | 10 | 208 | 0.0 | 3.2 | 0.00 | 2.13 | 0.00 | 98 | 1020.5 |
| 20260502122703 | 9 | 218 | 0.0 | 3.2 | 0.00 | 2.21 | 0.00 | 99 | 1020.3 |
| 20260502121803 | 9 | 225 | 0.0 | 3.2 | 0.00 | 2.29 | 0.00 | 99 | 1020.2 |
| 20260502120904 | 8 | 227 | 0.0 | 3.2 | 0.00 | 2.34 | 0.00 | 99 | 1020.0 |
| 20260502115611 | 9 | 223 | 0.0 | 3.2 | 0.00 | 2.44 | 0.00 | 99 | 1019.6 |
| 20260502114711 | 9 | 230 | 0.0 | 3.2 | 0.00 | 2.49 | 0.00 | 99 | 1019.5 |
| 20260502113603 | 8 | 245 | 0.0 | 1.6 | 0.00 | 2.54 | 0.00 | 99 | 1019.4 |
| 20260502112704 | 8 | 188 | 0.0 | 3.2 | 0.00 | 2.64 | 0.00 | 99 | 1019.4 |
| 20260502112011 | 9 | 179 | 0.0 | 3.2 | 0.00 | 2.69 | 0.00 | 99 | 1019.3 |
| 20260502110904 | 9 | 198 | 0.0 | 3.2 | 0.00 | 2.79 | 0.00 | 99 | 1019.4 |
| 20260502110004 | 9 | 203 | 0.0 | 3.2 | 0.00 | 2.87 | 0.00 | 99 | 1019.1 |
| 20260502105404 | 9 | 201 | 0.0 | 1.6 | 0.00 | 2.92 | 0.00 | 99 | 1019.1 |
| 20260502104503 | 9 | 206 | 0.0 | 1.6 | 0.00 | 2.97 | 0.00 | 99 | 1019.0 |
| 20260502103603 | 9 | 241 | 0.0 | 3.2 | 0.00 | 3.00 | 0.00 | 99 | 1018.9 |
| 20260502102703 | 9 | 224 | 0.0 | 3.2 | 0.00 | 3.02 | 0.00 | 99 | 1018.6 |
| 20260502101803 | 9 | 191 | 0.0 | 1.6 | 0.00 | 3.02 | 0.00 | 99 | 1018.8 |
| 20260502100903 | 9 | 139 | 0.0 | 1.6 | 0.00 | 3.05 | 0.00 | 99 | 1018.7 |
| 20260502090903 | 10 | 225 | 0.0 | 1.6 | 0.00 | 3.30 | 0.00 | 99 | 1018.4 |
| 20260502070904 | 10 | 173 | 0.0 | 1.6 | 0.00 | 3.51 | 0.00 | 99 | 1017.6 |
| 20260502070004 | 10 | 189 | 0.0 | 1.6 | 0.00 | 3.51 | 0.00 | 99 | 1017.5 |
| 20260502065403 | 10 | 138 | 0.0 | 1.6 | 0.00 | 3.51 | 0.00 | 99 | 1017.6 |
| 20260502064711 | 10 | 138 | 0.0 | 1.6 | 0.00 | 3.53 | 0.00 | 99 | 1017.8 |
| 20260502063603 | 10 | 242 | 0.0 | 1.6 | 0.00 | 3.56 | 0.00 | 99 | 1017.8 |
| 20260502062704 | 10 | 159 | 0.0 | 1.6 | 0.00 | 3.58 | 0.00 | 99 | 1017.7 |
| 20260502061803 | 10 | 162 | 0.0 | 1.6 | 0.00 | 3.61 | 0.00 | 99 | 1017.8 |
| 20260502060903 | 10 | 196 | 0.0 | 1.6 | 0.00 | 3.63 | 0.00 | 99 | 1017.9 |
| 20260502060004 | 10 | 202 | 0.0 | 1.6 | 0.00 | 3.66 | 0.00 | 99 | 1017.9 |
| 20260502055611 | 10 | 146 | 0.0 | 1.6 | 0.00 | 3.66 | 0.00 | 99 | 1018.0 |
| 20260502054504 | 10 | 205 | 0.0 | 1.6 | 0.00 | 3.68 | 0.00 | 99 | 1018.0 |
| 20260502053604 | 11 | 0 | 0.0 | 0.0 | 0.00 | 3.71 | 0.00 | 99 | 1017.7 |
| 20260502052703 | 11 | 94 | 0.0 | 1.6 | 0.00 | 3.76 | 0.00 | 99 | 1017.9 |
| 20260502051803 | 11 | 122 | 0.0 | 1.6 | 0.00 | 3.81 | 0.00 | 99 | 1018.1 |
| 20260502051111 | 11 | 112 | 0.0 | 1.6 | 0.00 | 3.84 | 0.00 | 99 | 1017.9 |
| 20260502050009 | 11 | 87 | 0.0 | 1.6 | 0.00 | 3.86 | 0.00 | 99 | 1018.0 |
| 20260502045611 | 11 | 0 | 0.0 | 0.0 | 0.00 | 3.86 | 3.86 | 99 | 1018.2 |
| 20260502044504 | 11 | 116 | 0.0 | 1.6 | 0.00 | 3.86 | 3.86 | 99 | 1018.2 |
| 20260502043603 | 11 | 94 | 0.0 | 1.6 | 0.00 | 3.89 | 3.86 | 98 | 1018.2 |
| 20260502042703 | 11 | 65 | 0.0 | 1.6 | 0.00 | 3.89 | 3.86 | 98 | 1018.4 |
| 20260502042011 | 11 | 133 | 0.0 | 1.6 | 0.00 | 3.89 | 3.86 | 98 | 1018.4 |
| 20260502040903 | 11 | 0 | 0.0 | 0.0 | 0.00 | 3.89 | 3.86 | 98 | 1018.2 |
| 20260502040004 | 11 | 44 | 0.0 | 1.6 | 0.00 | 3.89 | 3.86 | 98 | 1018.3 |
| 20260502035611 | 11 | 44 | 0.0 | 1.6 | 0.00 | 3.89 | 3.86 | 98 | 1018.3 |
| 20260502034711 | 11 | 103 | 0.0 | 3.2 | 0.00 | 3.89 | 3.86 | 97 | 1018.2 |
| 20260502033603 | 11 | 76 | 0.0 | 3.2 | 0.00 | 3.89 | 3.86 | 97 | 1018.4 |
| 20260502032703 | 11 | 64 | 1.6 | 8.0 | 0.00 | 3.89 | 3.86 | 97 | 1018.0 |
| 20260502031804 | 11 | 50 | 1.6 | 12.9 | 0.00 | 3.89 | 3.86 | 97 | 1017.9 |
| 20260502030904 | 11 | 68 | 1.6 | 12.9 | 0.00 | 3.89 | 3.86 | 97 | 1017.1 |
| 20260502030003 | 11 | 63 | 4.8 | 12.9 | 0.00 | 3.89 | 3.86 | 97 | 1016.9 |
| 20260502025403 | 11 | 64 | 4.8 | 9.7 | 0.00 | 3.89 | 3.86 | 98 | 1017.2 |
| 20260502024504 | 11 | 67 | 3.2 | 8.0 | 0.03 | 3.89 | 3.86 | 98 | 1017.7 |
| 20260502023603 | 11 | 57 | 1.6 | 8.0 | 0.03 | 3.89 | 3.86 | 99 | 1017.8 |
| 20260502022703 | 11 | 61 | 1.6 | 8.0 | 0.05 | 3.91 | 3.86 | 98 | 1017.7 |
| 20260502021803 | 11 | 68 | 3.2 | 9.7 | 0.10 | 3.96 | 3.86 | 99 | 1017.5 |
| 20260502021111 | 11 | 68 | 3.2 | 9.7 | 0.10 | 3.96 | 3.86 | 99 | 1016.7 |
| 20260502020004 | 11 | 71 | 4.8 | 16.1 | 0.13 | 3.94 | 3.86 | 99 | 1016.1 |
| 20260502015403 | 11 | 75 | 4.8 | 14.5 | 0.15 | 3.94 | 3.86 | 99 | 1016.3 |
| 20260502014503 | 12 | 65 | 3.2 | 9.7 | 0.18 | 3.94 | 3.86 | 99 | 1016.3 |
| 20260502013811 | 12 | 62 | 1.6 | 6.4 | 0.20 | 3.94 | 3.86 | 99 | 1016.4 |
| 20260502012703 | 12 | 70 | 1.6 | 4.8 | 0.15 | 3.89 | 3.81 | 99 | 1016.4 |
| 20260502011803 | 12 | 63 | 0.0 | 6.4 | 0.15 | 3.86 | 3.78 | 99 | 1016.2 |
| 20260502010904 | 12 | 11 | 0.0 | 6.4 | 0.13 | 3.84 | 3.76 | 99 | 1016.6 |
| 20260502010211 | 12 | 55 | 1.6 | 4.8 | 0.10 | 3.81 | 3.73 | 99 | 1016.4 |
| 20260502005404 | 12 | 49 | 0.0 | 4.8 | 0.08 | 3.78 | 3.71 | 99 | 1016.1 |
| 20260502004504 | 12 | 27 | 1.6 | 8.0 | 0.05 | 3.76 | 3.68 | 99 | 1016.0 |
| 20260502003603 | 12 | 36 | 0.0 | 4.8 | 0.03 | 3.73 | 3.66 | 99 | 1015.9 |
| 20260502002911 | 12 | 43 | 0.0 | 3.2 | 0.03 | 3.73 | 3.66 | 98 | 1015.8 |
| 20260502001803 | 12 | 66 | 1.6 | 6.4 | 0.00 | 3.71 | 3.63 | 98 | 1015.6 |
| 20260502000903 | 12 | 61 | 1.6 | 6.4 | 0.00 | 3.71 | 3.63 | 98 | 1015.1 |
| 20260502000004 | 12 | 73 | 1.6 | 8.0 | 0.05 | 3.71 | 3.63 | 98 | 1014.8 |
| 20260501235403 | 12 | 56 | 3.2 | 8.0 | 0.05 | 3.71 | 3.63 | 98 | 1014.5 |
| 20260501234711 | 12 | 62 | 4.8 | 8.0 | 0.08 | 3.71 | 3.63 | 98 | 1014.2 |
| 20260501233604 | 12 | 70 | 4.8 | 14.5 | 0.13 | 3.71 | 3.63 | 99 | 1013.7 |
| 20260501232703 | 12 | 60 | 4.8 | 16.1 | 0.20 | 3.71 | 3.63 | 99 | 1013.7 |
| 20260501231803 | 12 | 67 | 3.2 | 12.9 | 0.28 | 3.71 | 3.63 | 99 | 1014.0 |
| 20260501230904 | 12 | 73 | 3.2 | 8.0 | 0.36 | 3.71 | 3.63 | 99 | 1013.8 |
| 20260501230004 | 12 | 71 | 3.2 | 8.0 | 0.36 | 3.66 | 3.58 | 99 | 1014.2 |
| 20260501225403 | 12 | 65 | 3.2 | 8.0 | 0.36 | 3.66 | 3.58 | 99 | 1014.4 |
| 20260501224503 | 12 | 66 | 3.2 | 8.0 | 0.33 | 3.63 | 3.56 | 99 | 1015.2 |
| 20260501223604 | 12 | 59 | 3.2 | 8.0 | 0.33 | 3.58 | 3.51 | 98 | 1014.8 |
| 20260501222703 | 12 | 58 | 3.2 | 8.0 | 0.30 | 3.51 | 3.43 | 98 | 1015.0 |
| 20260501221804 | 12 | 61 | 3.2 | 8.0 | 0.23 | 3.43 | 3.35 | 98 | 1015.0 |
| 20260501220903 | 12 | 60 | 3.2 | 8.0 | 0.15 | 3.35 | 3.25 | 98 | 1014.9 |
| 20260501220211 | 12 | 52 | 1.6 | 8.0 | 0.15 | 3.30 | 3.23 | 98 | 1014.7 |
| 20260501215404 | 12 | 65 | 3.2 | 8.0 | 0.18 | 3.30 | 3.23 | 98 | 1014.1 |
| 20260501214503 | 12 | 64 | 3.2 | 8.0 | 0.20 | 3.30 | 3.20 | 98 | 1014.0 |
| 20260501213603 | 12 | 60 | 4.8 | 9.7 | 0.23 | 3.25 | 3.17 | 98 | 1014.0 |
| 20260501212703 | 12 | 62 | 3.2 | 9.7 | 0.20 | 3.20 | 3.12 | 98 | 1013.6 |
| 20260501211803 | 12 | 67 | 3.2 | 12.9 | 0.18 | 3.20 | 3.12 | 98 | 1014.2 |
| 20260501210903 | 12 | 61 | 4.8 | 17.7 | 0.18 | 3.20 | 3.12 | 98 | 1013.7 |
| 20260501210211 | 12 | 59 | 4.8 | 14.5 | 0.15 | 3.17 | 3.10 | 98 | 1013.7 |
| 20260501205403 | 13 | 67 | 3.2 | 11.3 | 0.10 | 3.12 | 3.05 | 98 | 1013.7 |
| 20260501204503 | 13 | 76 | 3.2 | 8.0 | 0.05 | 3.07 | 3.00 | 98 | 1013.8 |
| 20260501203603 | 13 | 50 | 1.6 | 9.7 | 0.00 | 3.02 | 2.95 | 97 | 1013.8 |
| 20260501202703 | 13 | 63 | 1.6 | 9.7 | 0.00 | 3.02 | 2.95 | 96 | 1014.5 |
| 20260501201804 | 13 | 65 | 3.2 | 11.3 | 0.00 | 3.02 | 2.95 | 96 | 1013.6 |
| 20260501200903 | 13 | 58 | 3.2 | 9.7 | 0.00 | 3.02 | 2.95 | 96 | 1013.0 |
| 20260501200004 | 13 | 61 | 3.2 | 9.7 | 0.00 | 3.02 | 2.95 | 96 | 1013.2 |
| 20260501195403 | 13 | 62 | 1.6 | 6.4 | 0.00 | 3.02 | 2.95 | 96 | 1013.1 |
| 20260501194503 | 13 | 69 | 1.6 | 8.0 | 0.00 | 3.02 | 2.95 | 96 | 1012.7 |
| 20260501193603 | 13 | 62 | 3.2 | 14.5 | 0.00 | 3.05 | 2.95 | 96 | 1012.5 |
| 20260501192703 | 13 | 65 | 3.2 | 11.3 | 0.00 | 3.05 | 2.95 | 96 | 1011.9 |
| 20260501191803 | 13 | 61 | 4.8 | 17.7 | 0.00 | 3.07 | 2.95 | 96 | 1011.8 |
| 20260501190903 | 13 | 60 | 4.8 | 12.9 | 0.00 | 3.12 | 2.95 | 96 | 1011.8 |
| 20260501190004 | 13 | 56 | 4.8 | 17.7 | 0.00 | 3.15 | 2.95 | 97 | 1011.3 |
| 20260501185404 | 13 | 60 | 6.4 | 17.7 | 0.00 | 3.15 | 2.95 | 97 | 1011.4 |
| 20260501184504 | 13 | 61 | 4.8 | 17.7 | 0.00 | 3.15 | 2.92 | 98 | 1011.4 |
| 20260501183604 | 13 | 57 | 4.8 | 17.7 | 0.00 | 3.15 | 2.92 | 98 | 1012.4 |
| 20260501182704 | 13 | 60 | 3.2 | 9.7 | 0.00 | 3.15 | 2.92 | 98 | 1013.3 |
| 20260501181803 | 13 | 59 | 4.8 | 20.9 | 0.03 | 3.20 | 2.92 | 98 | 1013.6 |
| 20260501180903 | 13 | 65 | 4.8 | 17.7 | 0.03 | 3.20 | 2.92 | 98 | 1013.9 |
| 20260501180004 | 13 | 60 | 4.8 | 17.7 | 0.05 | 3.25 | 2.92 | 98 | 1014.4 |
| 20260501175403 | 13 | 66 | 4.8 | 16.1 | 0.05 | 3.35 | 2.92 | 98 | 1014.5 |
| 20260501174504 | 13 | 63 | 3.2 | 9.7 | 0.08 | 3.68 | 2.92 | 98 | 1014.8 |
| 20260501173603 | 13 | 70 | 4.8 | 17.7 | 0.10 | 4.39 | 2.92 | 98 | 1015.0 |
| 20260501172703 | 13 | 65 | 4.8 | 14.5 | 0.13 | 4.52 | 2.92 | 98 | 1015.1 |
| 20260501171803 | 13 | 61 | 3.2 | 11.3 | 0.15 | 4.83 | 2.92 | 99 | 1014.9 |
| 20260501170904 | 13 | 70 | 3.2 | 9.7 | 0.18 | 4.98 | 2.90 | 99 | 1015.1 |
| 20260501170004 | 13 | 75 | 3.2 | 12.9 | 0.20 | 5.03 | 2.90 | 99 | 1015.4 |
| 20260501165404 | 13 | 81 | 3.2 | 11.3 | 0.18 | 5.00 | 2.87 | 99 | 1015.7 |
| 20260501164504 | 13 | 62 | 3.2 | 11.3 | 0.15 | 4.98 | 2.84 | 99 | 1016.0 |
| 20260501163603 | 13 | 68 | 1.6 | 8.0 | 0.15 | 4.95 | 2.82 | 99 | 1016.2 |
| 20260501162703 | 13 | 66 | 3.2 | 8.0 | 0.15 | 4.93 | 2.79 | 99 | 1016.4 |
| 20260501161804 | 14 | 58 | 1.6 | 6.4 | 0.15 | 4.88 | 2.77 | 99 | 1016.4 |
| 20260501160903 | 13 | 79 | 3.2 | 9.7 | 0.15 | 4.85 | 2.72 | 99 | 1016.3 |
| 20260501160004 | 14 | 55 | 1.6 | 8.0 | 0.15 | 4.83 | 2.69 | 99 | 1015.7 |
| 20260501155404 | 14 | 69 | 1.6 | 9.7 | 0.20 | 4.85 | 2.69 | 99 | 1015.2 |
| 20260501154503 | 13 | 62 | 3.2 | 9.7 | 0.23 | 4.83 | 2.69 | 99 | 1015.3 |